createdAt,value
2018-06-27T00:00:29.959Z,16.22
2018-06-27T00:02:59.746Z,16.12
2018-06-27T00:05:29.573Z,16.10
2018-06-27T00:07:59.038Z,16.11
2018-06-27T00:10:28.887Z,16.09
2018-06-27T00:12:58.729Z,16.11
2018-06-27T00:15:28.625Z,16.24
2018-06-27T00:17:58.435Z,16.21
2018-06-27T00:20:28.235Z,16.23
2018-06-27T00:22:58.125Z,16.32
2018-06-27T00:25:27.950Z,16.39
2018-06-27T00:27:57.885Z,16.30
2018-06-27T00:30:28.107Z,16.13
2018-06-27T00:32:58.251Z,16.16
2018-06-27T00:35:28.167Z,16.26
2018-06-27T00:37:58.321Z,16.14
2018-06-27T00:40:28.173Z,16.22
2018-06-27T00:42:58.309Z,16.08
2018-06-27T00:45:28.895Z,16.05
2018-06-27T00:47:58.745Z,16.13
2018-06-27T00:50:28.737Z,16.21
2018-06-27T00:52:58.566Z,16.21
2018-06-27T00:55:28.401Z,16.24
2018-06-27T00:57:58.443Z,16.24
2018-06-27T01:00:28.746Z,16.17
2018-06-27T01:02:58.916Z,16.04
2018-06-27T01:05:29.319Z,15.92
2018-06-27T01:07:59.158Z,15.74
2018-06-27T01:10:29.244Z,15.62
2018-06-27T01:12:59.319Z,15.45
2018-06-27T01:15:30.261Z,15.38
2018-06-27T01:18:00.497Z,15.37
2018-06-27T01:20:30.683Z,15.39
2018-06-27T01:23:00.835Z,15.44
2018-06-27T01:25:31.283Z,15.54
2018-06-27T01:28:01.083Z,15.49
2018-06-27T01:30:30.916Z,15.32
2018-06-27T01:33:01.167Z,15.10
2018-06-27T01:35:30.965Z,15.10
2018-06-27T01:38:00.848Z,15.00
2018-06-27T01:40:30.618Z,15.01
2018-06-27T01:43:00.675Z,15.09
2018-06-27T01:45:30.676Z,15.03
2018-06-27T01:48:00.571Z,15.01
2018-06-27T01:50:30.421Z,15.03
2018-06-27T01:53:00.655Z,14.96
2018-06-27T01:55:30.531Z,14.84
2018-06-27T01:58:00.475Z,14.70
2018-06-27T02:00:29.927Z,14.68
2018-06-27T02:03:00.191Z,14.66
2018-06-27T02:05:30.723Z,14.71
2018-06-27T02:08:00.659Z,14.75
2018-06-27T02:10:30.425Z,14.76
2018-06-27T02:13:00.515Z,14.76
2018-06-27T02:15:30.440Z,14.72
2018-06-27T02:18:00.379Z,14.56
2018-06-27T02:20:30.585Z,14.50
2018-06-27T02:23:09.826Z,14.62
2018-06-27T02:25:40.325Z,14.53
2018-06-27T02:28:11.408Z,14.51
2018-06-27T02:30:41.319Z,14.54
2018-06-27T02:33:15.207Z,14.53
2018-06-27T02:35:45.133Z,14.49
2018-06-27T02:38:14.955Z,14.57
2018-06-27T02:40:44.907Z,14.53
2018-06-27T02:43:14.779Z,14.46
2018-06-27T02:45:44.863Z,14.36
2018-06-27T02:48:14.697Z,14.26
2018-06-27T02:50:45.143Z,14.18
2018-06-27T02:53:15.027Z,14.21
2018-06-27T02:55:45.201Z,14.17
2018-06-27T02:58:15.121Z,14.10
2018-06-27T03:00:45.000Z,14.12
2018-06-27T03:03:14.997Z,14.15
2018-06-27T03:05:45.128Z,14.15
2018-06-27T03:08:14.929Z,14.16
2018-06-27T03:10:45.405Z,14.14
2018-06-27T03:13:15.296Z,14.16
2018-06-27T03:15:45.576Z,14.12
2018-06-27T03:18:15.738Z,14.17
2018-06-27T03:20:45.592Z,14.17
2018-06-27T03:23:15.889Z,14.16
2018-06-27T03:25:45.787Z,14.21
2018-06-27T03:28:15.696Z,14.16
2018-06-27T03:30:45.819Z,14.24
2018-06-27T03:33:16.567Z,14.26
2018-06-27T03:35:46.716Z,14.34
2018-06-27T03:38:16.636Z,14.29
2018-06-27T03:40:46.572Z,14.31
2018-06-27T03:43:16.375Z,14.30
2018-06-27T03:45:46.220Z,14.36
2018-06-27T03:48:16.440Z,14.34
2018-06-27T03:50:46.346Z,14.34
2018-06-27T03:53:16.206Z,14.34
2018-06-27T03:55:46.026Z,14.34
2018-06-27T03:58:15.982Z,14.48
2018-06-27T04:07:57.564Z,15.57
2018-06-27T04:10:27.508Z,15.71
2018-06-27T04:12:57.457Z,16.26
2018-06-27T04:15:27.500Z,16.51
2018-06-27T04:17:57.488Z,17.02
2018-06-27T04:20:27.396Z,17.50
2018-06-27T04:22:57.233Z,17.63
2018-06-27T04:25:27.036Z,18.43
2018-06-27T04:27:56.932Z,18.87
2018-06-27T04:30:27.770Z,19.67
2018-06-27T04:32:57.730Z,19.41
2018-06-27T04:35:27.634Z,19.27
2018-06-27T04:37:57.482Z,19.74
2018-06-27T04:40:27.331Z,19.48
2018-06-27T04:42:57.332Z,19.39
2018-06-27T04:45:27.489Z,19.54
2018-06-27T04:47:57.442Z,19.97
2018-06-27T04:50:27.872Z,19.99
2018-06-27T04:52:58.261Z,20.05
2018-06-27T04:55:28.153Z,20.80
2018-06-27T04:57:58.593Z,21.31
2018-06-27T05:00:29.047Z,21.59
2018-06-27T05:02:59.648Z,21.64
2018-06-27T05:05:30.350Z,21.73
2018-06-27T05:08:01.280Z,21.82
2018-06-27T05:10:31.710Z,21.96
2018-06-27T05:13:02.202Z,21.85
2018-06-27T05:15:32.700Z,21.74
2018-06-27T05:18:03.452Z,21.95
2018-06-27T05:20:33.982Z,22.39
2018-06-27T05:23:04.413Z,22.01
2018-06-27T05:25:34.884Z,22.60
2018-06-27T05:28:05.284Z,22.36
2018-06-27T05:30:35.832Z,22.52
2018-06-27T05:33:06.506Z,22.77
2018-06-27T05:35:36.880Z,23.17
2018-06-27T05:38:07.582Z,23.50
2018-06-27T05:40:38.256Z,22.73
2018-06-27T05:43:08.682Z,22.57
2018-06-27T05:45:39.452Z,22.09
2018-06-27T05:48:10.075Z,22.48
2018-06-27T05:50:42.129Z,22.24
2018-06-27T05:53:12.636Z,21.91
2018-06-27T05:55:43.088Z,21.27
2018-06-27T05:58:13.029Z,20.19
2018-06-27T06:00:43.082Z,19.74
2018-06-27T06:03:13.242Z,19.41
2018-06-27T06:05:43.074Z,19.42
2018-06-27T06:08:12.917Z,19.31
2018-06-27T06:10:42.803Z,19.23
2018-06-27T06:13:12.888Z,18.78
2018-06-27T06:15:42.767Z,18.19
2018-06-27T06:18:12.703Z,18.35
2018-06-27T06:20:42.474Z,18.53
2018-06-27T06:23:12.384Z,18.48
2018-06-27T06:25:42.319Z,18.27
2018-06-27T06:28:12.136Z,18.38
2018-06-27T06:30:42.225Z,18.40
2018-06-27T06:33:11.977Z,18.64
2018-06-27T06:35:41.794Z,18.48
2018-06-27T06:38:11.710Z,18.58
2018-06-27T06:40:41.587Z,18.73
2018-06-27T06:43:11.612Z,18.59
2018-06-27T06:45:41.404Z,18.44
2018-06-27T06:48:11.258Z,18.59
2018-06-27T06:50:41.286Z,18.66
2018-06-27T06:53:11.128Z,18.83
2018-06-27T06:55:41.215Z,18.83
2018-06-27T06:58:11.072Z,19.31
2018-06-27T07:00:40.846Z,19.38
2018-06-27T07:03:10.701Z,19.27
2018-06-27T07:05:40.569Z,19.18
2018-06-27T07:08:10.455Z,19.10
2018-06-27T07:10:40.244Z,19.20
2018-06-27T07:13:10.031Z,19.34
2018-06-27T07:15:40.328Z,19.40
2018-06-27T07:18:10.219Z,19.75
2018-06-27T07:20:40.075Z,19.62
2018-06-27T07:23:10.103Z,19.66
2018-06-27T07:25:40.253Z,19.81
2018-06-27T07:28:10.298Z,19.79
2018-06-27T07:30:41.101Z,19.96
2018-06-27T07:33:10.910Z,19.69
2018-06-27T07:35:41.053Z,20.02
2018-06-27T07:38:10.955Z,20.32
2018-06-27T07:40:41.379Z,20.10
2018-06-27T07:43:11.277Z,20.17
2018-06-27T07:45:41.163Z,20.21
2018-06-27T07:48:11.631Z,20.07
2018-06-27T07:50:42.973Z,20.44
2018-06-27T07:53:13.533Z,20.28
2018-06-27T07:55:43.943Z,20.76
2018-06-27T07:58:14.437Z,20.59
2018-06-27T08:00:44.859Z,20.51
2018-06-27T08:03:15.404Z,20.53
2018-06-27T08:05:45.995Z,20.56
2018-06-27T08:08:16.889Z,20.54
2018-06-27T08:10:47.305Z,20.65
2018-06-27T08:13:18.459Z,20.60
2018-06-27T08:15:48.836Z,20.48
2018-06-27T08:18:19.257Z,20.56
2018-06-27T08:20:49.615Z,21.12
2018-06-27T08:23:20.301Z,21.03
2018-06-27T08:25:52.083Z,21.31
2018-06-27T08:28:23.723Z,21.18
2018-06-27T08:30:54.105Z,21.08
2018-06-27T08:33:24.517Z,21.13
2018-06-27T08:35:54.999Z,21.11
2018-06-27T08:38:25.419Z,21.23
2018-06-27T08:40:55.977Z,21.30
2018-06-27T08:43:26.335Z,21.00
2018-06-27T08:45:56.718Z,21.11
2018-06-27T08:48:27.791Z,21.65
2018-06-27T08:50:59.574Z,21.63
2018-06-27T08:53:30.080Z,21.50
2018-06-27T08:56:00.442Z,21.62
2018-06-27T08:58:30.924Z,21.83
2018-06-27T09:01:01.259Z,21.87
2018-06-27T09:03:32.050Z,21.60
2018-06-27T09:13:14.207Z,22.01
2018-06-27T09:15:44.605Z,21.81
2018-06-27T09:18:15.393Z,22.40
2018-06-27T09:20:46.121Z,22.41
2018-06-27T09:23:16.549Z,22.45
2018-06-27T09:25:47.037Z,22.11
2018-06-27T09:28:17.527Z,22.00
2018-06-27T09:30:47.819Z,22.17
2018-06-27T09:33:18.308Z,22.57
2018-06-27T09:35:48.644Z,22.31
2018-06-27T09:38:19.010Z,22.23
2018-06-27T09:40:49.336Z,22.34
2018-06-27T09:43:19.736Z,22.42
2018-06-27T09:45:50.060Z,22.33
2018-06-27T09:48:20.421Z,22.46
2018-06-27T09:50:50.710Z,22.75
2018-06-27T09:53:21.167Z,22.63
2018-06-27T09:55:51.562Z,22.96
2018-06-27T09:58:22.018Z,23.12
2018-06-27T10:00:52.466Z,22.57
2018-06-27T10:03:23.062Z,22.70
2018-06-27T10:05:53.570Z,22.60
2018-06-27T10:08:23.965Z,22.63
2018-06-27T10:10:54.803Z,22.76
2018-06-27T10:13:25.172Z,23.20
2018-06-27T10:15:55.672Z,23.25
2018-06-27T10:18:26.041Z,23.44
2018-06-27T10:20:56.363Z,23.05
2018-06-27T10:23:26.717Z,22.88
2018-06-27T10:25:57.055Z,23.00
2018-06-27T10:28:27.556Z,23.30
2018-06-27T10:30:58.021Z,23.18
2018-06-27T10:33:28.455Z,23.55
2018-06-27T10:35:58.820Z,23.37
2018-06-27T10:38:29.225Z,23.34
2018-06-27T10:40:59.627Z,23.75
2018-06-27T10:43:30.023Z,23.86
2018-06-27T10:46:00.382Z,23.67
2018-06-27T10:48:30.791Z,23.74
2018-06-27T10:51:01.162Z,23.58
2018-06-27T10:53:31.548Z,23.74
2018-06-27T10:56:02.822Z,23.99
2018-06-27T10:58:33.184Z,23.69
2018-06-27T11:01:03.863Z,23.68
2018-06-27T11:03:34.421Z,23.85
2018-06-27T11:06:05.180Z,23.78
2018-06-27T11:08:35.872Z,23.91
2018-06-27T11:11:06.346Z,24.25
2018-06-27T11:13:36.697Z,23.62
2018-06-27T11:16:07.151Z,24.09
2018-06-27T11:18:37.520Z,24.46
2018-06-27T11:21:07.936Z,23.88
2018-06-27T11:23:38.274Z,24.36
2018-06-27T11:26:09.404Z,24.42
2018-06-27T11:28:39.798Z,24.35
2018-06-27T11:31:10.647Z,23.62
2018-06-27T11:33:41.795Z,23.44
2018-06-27T11:36:13.050Z,23.02
2018-06-27T11:38:43.530Z,23.37
2018-06-27T11:41:13.984Z,23.80
2018-06-27T11:43:44.406Z,24.24
2018-06-27T11:46:15.522Z,23.97
2018-06-27T11:48:47.164Z,24.09
2018-06-27T11:51:17.946Z,24.70
2018-06-27T11:53:48.319Z,24.48
2018-06-27T11:56:18.726Z,24.27
2018-06-27T11:58:49.074Z,24.52
2018-06-27T12:01:20.389Z,24.15
2018-06-27T12:03:50.864Z,24.47
2018-06-27T12:06:21.412Z,25.16
2018-06-27T12:08:51.861Z,25.16
2018-06-27T12:11:22.331Z,24.55
2018-06-27T12:13:52.705Z,24.65
2018-06-27T12:16:23.453Z,24.61
2018-06-27T12:18:54.318Z,25.05
2018-06-27T12:21:25.081Z,24.97
2018-06-27T12:23:55.464Z,24.70
2018-06-27T12:26:26.364Z,25.14
2018-06-27T12:28:56.882Z,24.86
2018-06-27T12:31:27.646Z,24.76
2018-06-27T12:33:58.269Z,25.22
2018-06-27T12:36:28.689Z,25.01
2018-06-27T12:38:59.106Z,25.37
2018-06-27T12:41:29.526Z,25.11
2018-06-27T12:43:59.890Z,24.85
2018-06-27T12:46:30.532Z,24.63
2018-06-27T12:49:00.980Z,24.62
2018-06-27T12:51:31.351Z,24.40
2018-06-27T12:54:01.752Z,24.66
2018-06-27T12:56:32.135Z,24.17
2018-06-27T12:59:02.816Z,24.01
2018-06-27T13:01:33.309Z,23.99
2018-06-27T13:04:03.771Z,24.23
2018-06-27T13:06:34.374Z,24.97
2018-06-27T13:09:07.342Z,25.39
2018-06-27T13:11:38.800Z,24.92
2018-06-27T13:14:09.256Z,24.69
2018-06-27T13:16:39.623Z,24.63
2018-06-27T13:19:10.027Z,24.85
2018-06-27T13:21:40.017Z,25.31
2018-06-27T13:24:10.397Z,25.26
2018-06-27T13:26:40.773Z,24.69
2018-06-27T13:29:11.203Z,25.08
2018-06-27T13:31:41.667Z,25.04
2018-06-27T13:34:12.085Z,25.00
2018-06-27T13:36:42.438Z,24.43
2018-06-27T13:39:12.773Z,24.72
2018-06-27T13:41:43.174Z,25.49
2018-06-27T13:44:13.537Z,25.74
2018-06-27T13:46:43.953Z,25.28
2018-06-27T13:49:14.614Z,25.66
2018-06-27T13:51:46.235Z,26.35
2018-06-27T13:54:16.620Z,25.71
2018-06-27T13:56:47.153Z,25.45
2018-06-27T13:59:17.872Z,25.19
2018-06-27T14:01:48.407Z,24.50
2018-06-27T14:04:18.783Z,24.41
2018-06-27T14:06:49.225Z,24.22
2018-06-27T14:09:19.827Z,24.30
2018-06-27T14:11:50.121Z,24.24
2018-06-27T14:14:20.561Z,24.17
2018-06-27T14:16:51.519Z,24.01
2018-06-27T14:19:22.492Z,24.33
2018-06-27T14:21:52.867Z,24.52
2018-06-27T14:25:07.358Z,24.55
2018-06-27T14:27:38.227Z,24.96
2018-06-27T14:30:09.220Z,25.07
2018-06-27T14:32:40.110Z,25.21
2018-06-27T14:35:12.699Z,25.09
2018-06-27T14:37:44.638Z,24.87
2018-06-27T14:40:17.399Z,24.46
2018-06-27T14:42:48.825Z,23.96
2018-06-27T14:45:20.297Z,23.82
2018-06-27T14:47:53.515Z,23.59
2018-06-27T14:50:25.729Z,23.50
2018-06-27T14:52:57.813Z,23.40
2018-06-27T14:55:31.031Z,23.36
2018-06-27T14:58:01.999Z,23.42
2018-06-27T15:00:32.939Z,23.41
2018-06-27T15:03:06.643Z,23.28
2018-06-27T15:05:37.195Z,23.08
2018-06-27T15:08:07.843Z,23.07
2018-06-27T15:10:40.300Z,23.22
2018-06-27T15:13:10.719Z,23.54
2018-06-27T15:15:41.131Z,23.73
2018-06-27T15:18:11.601Z,23.38
2018-06-27T15:20:42.068Z,23.11
2018-06-27T15:23:13.036Z,23.35
2018-06-27T15:25:43.433Z,23.38
2018-06-27T15:28:15.810Z,23.17
2018-06-27T15:30:46.395Z,23.05
2018-06-27T15:33:16.788Z,23.31
2018-06-27T15:35:47.229Z,23.56
2018-06-27T15:38:17.568Z,23.71
2018-06-27T15:40:48.008Z,23.77
2018-06-27T15:43:18.980Z,23.90
2018-06-27T15:45:49.316Z,23.97
2018-06-27T15:48:20.212Z,23.97
2018-06-27T15:50:50.613Z,23.97
2018-06-27T15:53:20.987Z,23.93
2018-06-27T15:55:51.354Z,23.59
2018-06-27T15:58:21.839Z,23.51
2018-06-27T16:00:52.927Z,23.58
2018-06-27T16:03:23.673Z,23.53
2018-06-27T16:05:53.657Z,23.47
2018-06-27T16:08:24.381Z,23.44
2018-06-27T16:10:54.963Z,23.45
2018-06-27T16:13:25.341Z,23.69
2018-06-27T16:15:56.083Z,23.66
2018-06-27T16:18:26.488Z,23.83
2018-06-27T16:20:57.316Z,23.80
2018-06-27T16:23:28.078Z,23.78
2018-06-27T16:25:58.803Z,23.60
2018-06-27T16:28:30.199Z,23.44
2018-06-27T16:31:00.600Z,23.27
2018-06-27T16:33:31.511Z,23.29
2018-06-27T16:36:02.347Z,23.60
2018-06-27T16:38:32.791Z,23.58
2018-06-27T16:41:03.223Z,23.57
2018-06-27T16:43:33.715Z,23.41
2018-06-27T16:46:04.109Z,23.41
2018-06-27T16:48:34.458Z,23.44
2018-06-27T16:51:04.960Z,23.48
2018-06-27T16:53:35.453Z,23.35
2018-06-27T16:56:05.932Z,23.45
2018-06-27T16:58:37.124Z,23.49
2018-06-27T17:01:07.792Z,23.46
2018-06-27T17:03:38.578Z,23.39
2018-06-27T17:06:09.001Z,23.60
2018-06-27T17:08:39.611Z,23.65
2018-06-27T17:11:10.254Z,23.60
2018-06-27T17:13:41.396Z,23.41
2018-06-27T17:16:12.218Z,23.38
2018-06-27T17:18:43.787Z,23.38
2018-06-27T17:21:14.612Z,23.54
2018-06-27T17:23:45.070Z,23.49
2018-06-27T17:26:15.622Z,23.30
2018-06-27T17:28:46.015Z,23.25
2018-06-27T17:31:16.493Z,23.12
2018-06-27T17:33:47.091Z,23.27
2018-06-27T17:36:17.535Z,23.29
2018-06-27T17:38:48.708Z,23.12
2018-06-27T17:41:19.675Z,23.12
2018-06-27T17:43:50.148Z,23.04
2018-06-27T17:46:20.507Z,22.97
2018-06-27T17:48:51.006Z,23.06
2018-06-27T17:51:21.492Z,22.95
2018-06-27T17:53:52.139Z,22.92
2018-06-27T17:56:23.026Z,22.78
2018-06-27T17:58:53.421Z,22.67
2018-06-27T18:01:23.898Z,22.65
2018-06-27T18:03:55.452Z,22.55
2018-06-27T18:06:26.621Z,22.59
2018-06-27T18:08:57.091Z,22.53
2018-06-27T18:11:27.566Z,22.56
2018-06-27T18:13:57.934Z,22.41
2018-06-27T18:16:28.350Z,22.24
2018-06-27T18:18:58.763Z,22.17
2018-06-27T18:21:30.547Z,22.13
2018-06-27T18:24:01.314Z,22.21
2018-06-27T18:26:32.436Z,22.10
2018-06-27T18:29:03.369Z,21.94
2018-06-27T18:31:34.510Z,21.90
2018-06-27T18:34:07.284Z,21.84
2018-06-27T18:36:37.779Z,21.85
2018-06-27T18:39:10.471Z,21.85
2018-06-27T18:41:41.154Z,21.84
2018-06-27T18:44:13.293Z,21.77
2018-06-27T18:46:44.898Z,21.74
2018-06-27T18:49:16.460Z,21.69
2018-06-27T18:51:46.836Z,21.60
2018-06-27T18:54:18.246Z,21.59
2018-06-27T18:56:49.206Z,21.52
2018-06-27T18:59:20.371Z,21.55
2018-06-27T19:01:50.874Z,21.51
2018-06-27T19:04:21.904Z,21.40
2018-06-27T19:06:52.248Z,21.36
2018-06-27T19:09:25.855Z,21.36
2018-06-27T19:11:56.810Z,21.21
2018-06-27T19:14:28.676Z,21.23
2018-06-27T19:16:59.524Z,21.09
2018-06-27T19:19:29.900Z,21.02
2018-06-27T19:22:00.495Z,20.79
2018-06-27T19:24:31.049Z,20.59
2018-06-27T19:27:02.082Z,20.54
2018-06-27T19:29:32.756Z,20.55
2018-06-27T19:32:04.217Z,20.60
2018-06-27T19:34:34.759Z,20.46
2018-06-27T19:37:05.148Z,20.38
2018-06-27T19:39:37.936Z,20.37
2018-06-27T19:42:08.866Z,20.35
2018-06-27T19:44:39.204Z,20.38
2018-06-27T19:47:09.665Z,20.25
2018-06-27T19:49:40.140Z,20.15
2018-06-27T19:52:10.536Z,20.01
2018-06-27T19:54:40.988Z,19.79
2018-06-27T19:57:13.650Z,19.77
2018-06-27T19:59:44.324Z,19.81
2018-06-27T20:02:15.170Z,19.74
2018-06-27T20:04:46.260Z,19.71
2018-06-27T20:11:25.968Z,19.75
2018-06-27T20:13:56.353Z,19.53
2018-06-27T20:16:26.893Z,19.52
2018-06-27T20:18:57.348Z,19.43
2018-06-27T20:21:30.732Z,19.32
2018-06-27T20:24:01.256Z,19.41
2018-06-27T20:26:32.404Z,19.33
2018-06-27T20:29:02.896Z,19.38
2018-06-27T20:31:33.374Z,19.39
2018-06-27T20:34:03.822Z,19.37
2018-06-27T20:36:34.262Z,19.27
2018-06-27T20:39:08.346Z,19.18
2018-06-27T20:41:40.276Z,19.03
2018-06-27T20:45:07.522Z,18.86
2018-06-27T20:47:37.408Z,18.51
2018-06-27T20:50:07.432Z,18.43
2018-06-27T20:52:37.350Z,18.39
2018-06-27T20:55:07.482Z,18.22
2018-06-27T20:57:37.409Z,18.20
2018-06-27T21:00:08.516Z,18.25
2018-06-27T21:02:38.374Z,18.11
2018-06-27T21:05:08.738Z,18.09
2018-06-27T21:07:38.674Z,17.92
2018-06-27T21:10:08.985Z,17.74
2018-06-27T21:12:38.822Z,17.74
2018-06-27T21:15:09.446Z,17.67
2018-06-27T21:17:39.324Z,17.61
2018-06-27T21:20:10.156Z,17.61
2018-06-27T21:22:40.312Z,17.63
2018-06-27T21:25:10.990Z,17.56
2018-06-27T21:27:40.896Z,17.53
2018-06-27T21:30:11.359Z,17.44
2018-06-27T21:32:41.306Z,17.37
2018-06-27T21:35:11.230Z,17.30
2018-06-27T21:37:41.436Z,17.21
2018-06-27T21:40:12.989Z,17.11
2018-06-27T21:42:43.848Z,17.06
2018-06-27T21:45:15.180Z,17.00
2018-06-27T21:47:44.950Z,16.98
2018-06-27T21:50:14.932Z,16.89
2018-06-27T21:52:45.536Z,16.83
2018-06-27T21:55:15.460Z,16.83
2018-06-27T21:57:45.628Z,16.81
2018-06-27T22:00:16.702Z,16.87
2018-06-27T22:02:46.668Z,16.99
2018-06-27T22:05:16.830Z,17.04
2018-06-27T22:07:46.669Z,17.11
2018-06-27T22:10:16.527Z,17.07
2018-06-27T22:12:46.279Z,16.92
2018-06-27T22:15:16.080Z,16.86
2018-06-27T22:17:45.937Z,16.88
2018-06-27T22:20:15.791Z,16.85
2018-06-27T22:22:45.613Z,16.79
2018-06-27T22:25:15.467Z,16.71
2018-06-27T22:27:45.367Z,16.67
2018-06-27T22:30:14.846Z,16.66
2018-06-27T22:32:45.146Z,16.61
2018-06-27T22:35:15.055Z,16.58
2018-06-27T22:37:44.908Z,16.55
2018-06-27T22:40:14.406Z,16.55
2018-06-27T22:42:45.867Z,16.58
2018-06-27T22:45:15.707Z,16.64
2018-06-27T22:47:45.524Z,16.64
2018-06-27T22:50:15.398Z,16.55
2018-06-27T22:52:45.330Z,16.44
2018-06-27T22:55:15.238Z,16.44
2018-06-27T22:57:45.039Z,16.37
2018-06-27T23:00:15.502Z,16.39
2018-06-27T23:02:45.388Z,16.34
2018-06-27T23:05:17.297Z,16.26
2018-06-27T23:07:47.076Z,16.18
2018-06-27T23:10:16.931Z,16.17
2018-06-27T23:12:46.819Z,16.04
2018-06-27T23:15:16.651Z,15.91
2018-06-27T23:17:46.597Z,15.89
2018-06-27T23:20:16.469Z,15.85
2018-06-27T23:22:48.163Z,15.78
2018-06-27T23:25:17.989Z,15.73
2018-06-27T23:27:47.786Z,15.62
2018-06-27T23:30:17.901Z,15.61
2018-06-27T23:32:47.939Z,15.53
2018-06-27T23:35:17.810Z,15.55
2018-06-27T23:37:48.478Z,15.56
2018-06-27T23:40:18.731Z,15.59
2018-06-27T23:42:48.246Z,15.58
2018-06-27T23:45:18.175Z,15.50
2018-06-27T23:47:47.985Z,15.47
2018-06-27T23:50:17.836Z,15.44
2018-06-27T23:52:48.322Z,15.47
2018-06-27T23:55:18.091Z,15.38
2018-06-27T23:57:48.011Z,15.27
